createdAt,value
2018-03-25T00:00:18.271Z,0.00
2018-03-25T00:01:18.365Z,0.00
2018-03-25T00:02:18.453Z,0.00
2018-03-25T00:03:18.538Z,0.00
2018-03-25T00:04:18.628Z,0.00
2018-03-25T00:05:18.714Z,0.00
2018-03-25T00:06:18.801Z,0.00
2018-03-25T00:07:18.890Z,0.00
2018-03-25T00:08:18.975Z,0.00
2018-03-25T00:09:19.061Z,0.00
2018-03-25T00:10:19.149Z,0.00
2018-03-25T00:11:19.235Z,0.00
2018-03-25T00:12:19.328Z,0.00
2018-03-25T00:13:19.416Z,0.00
2018-03-25T00:14:19.522Z,0.00
2018-03-25T00:15:19.616Z,0.00
2018-03-25T00:16:19.698Z,0.00
2018-03-25T00:17:19.787Z,0.00
2018-03-25T00:18:19.874Z,0.00
2018-03-25T00:19:19.951Z,0.00
2018-03-25T00:20:20.054Z,0.00
2018-03-25T00:21:20.152Z,0.00
2018-03-25T00:22:20.232Z,0.00
2018-03-25T00:23:20.321Z,0.00
2018-03-25T00:24:20.412Z,0.00
2018-03-25T00:25:20.497Z,0.00
2018-03-25T00:26:20.589Z,0.00
2018-03-25T00:27:20.670Z,0.00
2018-03-25T00:28:20.754Z,0.00
2018-03-25T00:29:20.838Z,0.00
2018-03-25T00:30:20.927Z,0.00
2018-03-25T00:31:21.020Z,0.00
2018-03-25T00:32:21.101Z,0.00
2018-03-25T00:33:21.180Z,0.00
2018-03-25T00:34:21.273Z,0.00
2018-03-25T00:35:21.366Z,0.00
2018-03-25T00:36:21.458Z,0.00
2018-03-25T00:37:21.543Z,0.00
2018-03-25T00:38:21.638Z,0.00
2018-03-25T00:39:21.730Z,0.00
2018-03-25T00:40:21.816Z,0.00
2018-03-25T00:41:21.918Z,0.00
2018-03-25T00:42:22.068Z,0.00
2018-03-25T00:43:22.091Z,0.00
2018-03-25T00:44:22.180Z,0.00
2018-03-25T00:45:22.265Z,0.00
2018-03-25T00:46:22.355Z,0.00
2018-03-25T00:47:22.444Z,0.00
2018-03-25T00:48:22.533Z,0.00
2018-03-25T00:49:22.618Z,0.00
2018-03-25T00:50:22.704Z,0.00
2018-03-25T00:51:22.794Z,0.00
2018-03-25T00:52:22.889Z,0.00
2018-03-25T00:53:22.977Z,0.00
2018-03-25T00:54:23.067Z,0.00
2018-03-25T00:55:23.183Z,0.00
2018-03-25T00:56:23.264Z,0.00
2018-03-25T00:57:23.327Z,0.00
2018-03-25T00:58:23.409Z,0.00
2018-03-25T00:59:23.504Z,0.00
2018-03-25T01:00:23.587Z,0.00
2018-03-25T01:01:23.678Z,0.00
2018-03-25T01:02:23.762Z,0.00
2018-03-25T01:03:23.857Z,0.00
2018-03-25T01:04:23.947Z,0.00
2018-03-25T01:05:24.034Z,0.00
2018-03-25T01:06:24.125Z,0.00
2018-03-25T01:07:24.215Z,0.00
2018-03-25T01:08:24.303Z,0.00
2018-03-25T01:09:24.390Z,0.00
2018-03-25T01:10:24.475Z,0.00
2018-03-25T01:11:24.561Z,0.00
2018-03-25T01:12:24.650Z,0.00
2018-03-25T01:13:24.738Z,0.00
2018-03-25T01:14:24.881Z,0.00
2018-03-25T01:15:24.916Z,0.00
2018-03-25T01:16:25.004Z,0.00
2018-03-25T01:17:25.092Z,0.00
2018-03-25T01:18:25.179Z,0.00
2018-03-25T01:19:25.278Z,0.00
2018-03-25T01:20:25.357Z,0.00
2018-03-25T01:21:25.445Z,0.00
2018-03-25T01:22:25.533Z,0.00
2018-03-25T01:23:25.621Z,0.00
2018-03-25T01:24:25.708Z,0.00
2018-03-25T01:25:25.795Z,0.00
2018-03-25T01:26:25.884Z,0.00
2018-03-25T01:27:25.975Z,0.00
2018-03-25T01:28:26.063Z,0.00
2018-03-25T01:29:26.150Z,0.00
2018-03-25T01:30:26.240Z,0.00
2018-03-25T01:31:26.332Z,0.00
2018-03-25T01:32:26.418Z,0.00
2018-03-25T01:33:26.503Z,0.00
2018-03-25T01:34:26.594Z,0.00
2018-03-25T01:35:26.681Z,0.00
2018-03-25T01:36:26.767Z,0.00
2018-03-25T01:37:26.853Z,0.00
2018-03-25T01:38:26.944Z,0.00
2018-03-25T01:39:27.035Z,0.00
2018-03-25T01:40:27.121Z,0.00
2018-03-25T01:41:27.208Z,0.00
2018-03-25T01:42:27.296Z,0.00
2018-03-25T01:43:27.394Z,0.00
2018-03-25T01:44:27.478Z,0.00
2018-03-25T01:45:27.570Z,0.00
2018-03-25T01:46:27.661Z,0.00
2018-03-25T01:47:27.746Z,0.00
2018-03-25T01:48:28.378Z,0.00
2018-03-25T01:49:27.917Z,0.00
2018-03-25T01:50:28.003Z,0.00
2018-03-25T01:51:28.089Z,0.00
2018-03-25T01:52:28.183Z,0.00
2018-03-25T01:53:28.318Z,0.00
2018-03-25T01:54:28.360Z,0.00
2018-03-25T01:55:28.437Z,0.00
2018-03-25T01:56:28.524Z,0.00
2018-03-25T01:57:28.612Z,0.00
2018-03-25T01:58:28.709Z,0.00
2018-03-25T01:59:28.791Z,0.00
2018-03-25T02:00:28.882Z,0.00
2018-03-25T02:01:28.972Z,0.00
2018-03-25T02:02:29.065Z,0.00
2018-03-25T02:03:29.158Z,0.00
2018-03-25T02:04:29.244Z,0.00
2018-03-25T02:05:29.331Z,0.00
2018-03-25T02:06:29.420Z,0.00
2018-03-25T02:07:29.511Z,0.00
2018-03-25T02:08:29.598Z,0.00
2018-03-25T02:09:29.686Z,0.00
2018-03-25T02:10:29.773Z,0.00
2018-03-25T02:11:29.860Z,0.00
2018-03-25T02:12:29.945Z,0.00
2018-03-25T02:13:30.032Z,0.00
2018-03-25T02:14:30.129Z,0.00
2018-03-25T02:15:30.216Z,0.00
2018-03-25T02:16:30.310Z,0.00
2018-03-25T02:17:30.393Z,0.00
2018-03-25T02:18:30.483Z,0.00
2018-03-25T02:19:30.571Z,0.00
2018-03-25T02:20:30.661Z,0.00
2018-03-25T02:21:30.750Z,0.00
2018-03-25T02:22:30.838Z,0.00
2018-03-25T02:23:30.928Z,0.00
2018-03-25T02:24:31.014Z,0.00
2018-03-25T02:25:31.101Z,0.00
2018-03-25T02:26:31.185Z,0.00
2018-03-25T02:27:31.276Z,0.00
2018-03-25T02:28:31.403Z,0.00
2018-03-25T02:29:31.492Z,0.00
2018-03-25T02:30:31.582Z,0.00
2018-03-25T02:31:31.667Z,0.00
2018-03-25T02:32:31.754Z,0.00
2018-03-25T02:33:31.882Z,0.00
2018-03-25T02:34:31.938Z,0.00
2018-03-25T02:35:32.028Z,0.00
2018-03-25T02:36:32.124Z,0.00
2018-03-25T02:37:32.220Z,0.00
2018-03-25T02:38:32.303Z,0.00
2018-03-25T02:39:32.395Z,0.00
2018-03-25T02:40:32.484Z,0.00
2018-03-25T02:41:32.571Z,0.00
2018-03-25T02:42:32.658Z,0.00
2018-03-25T02:43:32.747Z,0.00
2018-03-25T02:44:32.838Z,0.00
2018-03-25T02:45:32.926Z,0.00
2018-03-25T02:46:33.031Z,0.00
2018-03-25T02:47:33.096Z,0.00
2018-03-25T02:48:33.183Z,0.00
2018-03-25T02:49:33.267Z,0.00
2018-03-25T02:50:33.356Z,0.00
2018-03-25T02:51:33.448Z,0.00
2018-03-25T02:52:33.536Z,0.00
2018-03-25T02:53:33.615Z,0.00
2018-03-25T02:54:33.704Z,0.00
2018-03-25T02:55:33.792Z,0.00
2018-03-25T02:56:33.877Z,0.00
2018-03-25T02:57:33.963Z,0.00
2018-03-25T02:58:34.053Z,0.00
2018-03-25T02:59:34.139Z,0.00
2018-03-25T03:00:34.227Z,0.00
2018-03-25T03:01:34.322Z,0.00
2018-03-25T03:02:34.409Z,0.00
2018-03-25T03:03:34.487Z,0.00
2018-03-25T03:04:34.647Z,0.00
2018-03-25T03:05:34.662Z,0.00
2018-03-25T03:06:34.752Z,0.00
2018-03-25T03:07:34.842Z,0.00
2018-03-25T03:08:34.933Z,0.00
2018-03-25T03:09:35.026Z,0.00
2018-03-25T03:10:35.126Z,0.00
2018-03-25T03:11:35.215Z,0.00
2018-03-25T03:12:35.303Z,0.00
2018-03-25T03:13:35.389Z,0.00
2018-03-25T03:14:35.478Z,0.00
2018-03-25T03:15:35.563Z,0.00
2018-03-25T03:16:35.651Z,0.00
2018-03-25T03:17:35.737Z,0.00
2018-03-25T03:18:35.824Z,0.00
2018-03-25T03:19:35.911Z,0.00
2018-03-25T03:20:35.996Z,0.00
2018-03-25T03:21:36.084Z,0.00
2018-03-25T03:22:36.173Z,0.00
2018-03-25T03:23:36.256Z,0.00
2018-03-25T03:24:36.346Z,0.00
2018-03-25T03:25:36.431Z,0.00
2018-03-25T03:26:36.521Z,0.00
2018-03-25T03:27:36.609Z,0.00
2018-03-25T03:28:36.701Z,0.00
2018-03-25T03:29:36.787Z,0.00
2018-03-25T03:30:36.882Z,0.00
2018-03-25T03:31:36.963Z,0.00
2018-03-25T03:32:37.048Z,0.00
2018-03-25T03:33:37.137Z,0.00
2018-03-25T03:34:37.223Z,0.00
2018-03-25T03:35:37.302Z,0.00
2018-03-25T03:36:37.391Z,0.00
2018-03-25T03:37:37.480Z,0.00
2018-03-25T03:38:37.565Z,0.00
2018-03-25T03:39:37.652Z,0.00
2018-03-25T03:40:37.737Z,0.00
2018-03-25T03:41:37.818Z,0.00
2018-03-25T03:42:37.912Z,0.00
2018-03-25T03:43:37.998Z,0.00
2018-03-25T03:44:38.088Z,0.00
2018-03-25T03:45:38.178Z,0.00
2018-03-25T03:46:38.263Z,0.00
2018-03-25T03:47:38.350Z,0.00
2018-03-25T03:48:38.439Z,0.00
2018-03-25T03:49:38.535Z,0.00
2018-03-25T03:50:38.619Z,0.00
2018-03-25T03:51:38.706Z,0.00
2018-03-25T03:52:38.791Z,0.00
2018-03-25T03:53:38.888Z,0.00
2018-03-25T03:54:38.975Z,0.00
2018-03-25T03:55:39.063Z,0.00
2018-03-25T03:56:39.158Z,0.00
2018-03-25T03:57:39.240Z,0.00
2018-03-25T03:58:39.330Z,0.00
2018-03-25T03:59:39.416Z,0.00
2018-03-25T04:00:39.497Z,0.00
2018-03-25T04:01:39.584Z,0.00
2018-03-25T04:02:39.670Z,0.00
2018-03-25T04:03:39.758Z,0.00
2018-03-25T04:04:39.844Z,0.00
2018-03-25T04:05:39.935Z,0.00
2018-03-25T04:06:40.020Z,0.00
2018-03-25T04:07:40.107Z,0.00
2018-03-25T04:08:40.192Z,0.00
2018-03-25T04:09:40.282Z,0.00
2018-03-25T04:10:40.367Z,0.00
2018-03-25T04:11:40.462Z,0.00
2018-03-25T04:12:40.538Z,0.00
2018-03-25T04:13:40.624Z,0.00
2018-03-25T04:14:40.710Z,0.00
2018-03-25T04:15:40.800Z,0.00
2018-03-25T04:16:40.891Z,0.00
2018-03-25T04:17:40.980Z,0.00
2018-03-25T04:18:41.064Z,0.00
2018-03-25T04:19:41.155Z,0.00
2018-03-25T04:20:41.240Z,0.00
2018-03-25T04:21:41.331Z,0.00
2018-03-25T04:22:41.419Z,0.00
2018-03-25T04:23:41.505Z,0.00
2018-03-25T04:24:41.591Z,0.00
2018-03-25T04:25:41.685Z,0.00
2018-03-25T04:26:41.771Z,0.00
2018-03-25T04:27:41.860Z,0.00
2018-03-25T04:28:41.946Z,0.00
2018-03-25T04:29:42.034Z,0.00
2018-03-25T04:30:42.132Z,0.00
2018-03-25T04:31:42.221Z,0.00
2018-03-25T04:32:42.299Z,0.00
2018-03-25T04:33:42.382Z,0.00
2018-03-25T04:34:42.475Z,4.00
2018-03-25T04:35:42.565Z,4.00
2018-03-25T04:36:42.661Z,4.00
2018-03-25T04:37:42.751Z,4.00
2018-03-25T04:38:42.839Z,4.00
2018-03-25T04:39:42.928Z,4.00
2018-03-25T04:40:43.015Z,0.00
2018-03-25T04:41:43.104Z,4.00
2018-03-25T04:42:43.187Z,4.00
2018-03-25T04:43:43.277Z,4.00
2018-03-25T04:44:43.361Z,0.00
2018-03-25T04:45:43.449Z,4.00
2018-03-25T04:46:43.535Z,4.00
2018-03-25T04:47:43.629Z,4.00
2018-03-25T04:48:43.710Z,8.00
2018-03-25T04:49:43.800Z,8.00
2018-03-25T04:50:43.883Z,8.00
2018-03-25T04:51:43.980Z,8.00
2018-03-25T04:52:44.059Z,12.00
2018-03-25T04:53:44.148Z,8.00
2018-03-25T04:54:44.232Z,12.00
2018-03-25T04:55:44.314Z,12.00
2018-03-25T04:56:44.398Z,12.00
2018-03-25T04:57:44.485Z,20.00
2018-03-25T04:58:44.572Z,24.00
2018-03-25T04:59:44.660Z,24.00
2018-03-25T05:00:44.750Z,28.00
2018-03-25T05:01:44.831Z,36.00
2018-03-25T05:02:44.915Z,40.00
2018-03-25T05:03:45.002Z,48.00
2018-03-25T05:04:45.087Z,56.00
2018-03-25T05:05:45.178Z,60.00
2018-03-25T05:06:45.266Z,68.00
2018-03-25T05:07:45.343Z,76.00
2018-03-25T05:08:45.436Z,80.00
2018-03-25T05:09:45.563Z,88.00
2018-03-25T05:10:45.613Z,100.00
2018-03-25T05:11:45.702Z,112.00
2018-03-25T05:12:45.789Z,120.00
2018-03-25T05:13:45.905Z,132.00
2018-03-25T05:14:45.966Z,140.00
2018-03-25T05:15:46.052Z,152.00
2018-03-25T05:16:46.138Z,168.00
2018-03-25T05:17:46.228Z,188.00
2018-03-25T05:18:46.310Z,204.00
2018-03-25T05:19:46.395Z,228.00
2018-03-25T05:20:46.489Z,252.00
2018-03-25T05:21:46.575Z,276.00
2018-03-25T05:22:46.662Z,300.00
2018-03-25T05:23:46.750Z,328.00
2018-03-25T05:24:46.841Z,364.00
2018-03-25T05:25:46.931Z,388.00
2018-03-25T05:26:47.015Z,416.00
2018-03-25T05:27:47.108Z,444.00
2018-03-25T05:28:47.195Z,476.00
2018-03-25T05:29:47.283Z,504.00
2018-03-25T05:30:47.365Z,536.00
2018-03-25T05:31:47.452Z,572.00
2018-03-25T05:32:47.542Z,608.00
2018-03-25T05:33:47.629Z,644.00
2018-03-25T05:34:47.714Z,684.00
2018-03-25T05:35:47.804Z,724.00
2018-03-25T05:36:47.889Z,760.00
2018-03-25T05:37:47.977Z,804.00
2018-03-25T05:38:48.063Z,844.00
2018-03-25T05:39:48.156Z,880.00
2018-03-25T05:40:48.244Z,924.00
2018-03-25T05:41:48.328Z,972.00
2018-03-25T05:42:48.421Z,1024.00
2018-03-25T05:43:48.502Z,1076.00
2018-03-25T05:44:48.591Z,1124.00
2018-03-25T05:45:48.677Z,1172.00
2018-03-25T05:46:48.768Z,1216.00
2018-03-25T05:47:48.855Z,1260.00
2018-03-25T05:48:48.948Z,1300.00
2018-03-25T05:49:49.046Z,1340.00
2018-03-25T05:50:49.133Z,1392.00
2018-03-25T05:51:49.218Z,1440.00
2018-03-25T05:52:49.305Z,1496.00
2018-03-25T05:53:49.396Z,1544.00
2018-03-25T05:54:49.478Z,1592.00
2018-03-25T05:55:49.574Z,1636.00
2018-03-25T05:56:49.656Z,1692.00
2018-03-25T05:57:49.748Z,1744.00
2018-03-25T05:58:49.835Z,1800.00
2018-03-25T05:59:49.923Z,1852.00
2018-03-25T06:00:50.013Z,1896.00
2018-03-25T06:01:50.100Z,1944.00
2018-03-25T06:02:50.198Z,1992.00
2018-03-25T06:03:50.291Z,2040.00
2018-03-25T06:04:50.384Z,2088.00
2018-03-25T06:05:50.472Z,2136.00
2018-03-25T06:06:50.561Z,2192.00
2018-03-25T06:07:50.651Z,2248.00
2018-03-25T06:08:50.739Z,2312.00
2018-03-25T06:09:50.820Z,2372.00
2018-03-25T06:10:50.907Z,2436.00
2018-03-25T06:11:51.016Z,2492.00
2018-03-25T06:12:51.102Z,2548.00
2018-03-25T06:13:51.188Z,2588.00
2018-03-25T06:14:51.277Z,2632.00
2018-03-25T06:15:51.379Z,2684.00
2018-03-25T06:16:51.444Z,2736.00
2018-03-25T06:17:51.531Z,2792.00
2018-03-25T06:18:51.630Z,2840.00
2018-03-25T06:19:51.706Z,2900.00
2018-03-25T06:20:51.807Z,2948.00
2018-03-25T06:21:51.879Z,3004.00
2018-03-25T06:22:51.975Z,3072.00
2018-03-25T06:23:52.051Z,3156.00
2018-03-25T06:24:52.136Z,3224.00
2018-03-25T06:25:52.227Z,3304.00
2018-03-25T06:26:52.316Z,3372.00
2018-03-25T06:27:52.416Z,3412.00
2018-03-25T06:28:52.506Z,3528.00
2018-03-25T06:29:52.593Z,3776.00
2018-03-25T06:30:52.680Z,4132.00
2018-03-25T06:31:52.770Z,4272.00
2018-03-25T06:32:52.867Z,4248.00
2018-03-25T06:33:52.950Z,4388.00
2018-03-25T06:34:53.034Z,4680.00
2018-03-25T06:35:53.136Z,4800.00
2018-03-25T06:36:53.195Z,4828.00
2018-03-25T06:37:53.285Z,4928.00
2018-03-25T06:38:53.371Z,5060.00
2018-03-25T06:39:53.472Z,5076.00
2018-03-25T06:40:53.547Z,5060.00
2018-03-25T06:41:53.639Z,5160.00
2018-03-25T06:42:53.730Z,5232.00
2018-03-25T06:43:53.817Z,5244.00
2018-03-25T06:44:53.901Z,5272.00
2018-03-25T06:45:53.993Z,5324.00
2018-03-25T06:46:54.078Z,5348.00
2018-03-25T06:47:54.169Z,5316.00
2018-03-25T06:48:54.255Z,5296.00
2018-03-25T06:49:54.344Z,5484.00
2018-03-25T06:50:54.429Z,5548.00
2018-03-25T06:51:54.524Z,5456.00
2018-03-25T06:52:54.614Z,5392.00
2018-03-25T06:53:54.709Z,5484.00
2018-03-25T06:54:54.803Z,5468.00
2018-03-25T06:55:54.892Z,5272.00
2018-03-25T06:56:54.979Z,5220.00
2018-03-25T06:57:55.072Z,5232.00
2018-03-25T06:58:55.170Z,5240.00
2018-03-25T06:59:55.257Z,5344.00
2018-03-25T07:00:55.349Z,5344.00
2018-03-25T07:01:55.488Z,5340.00
2018-03-25T07:02:55.540Z,5484.00
2018-03-25T07:03:55.626Z,5404.00
2018-03-25T07:04:55.712Z,5420.00
2018-03-25T07:05:55.800Z,5444.00
2018-03-25T07:06:55.886Z,5436.00
2018-03-25T07:07:55.983Z,5388.00
2018-03-25T07:08:56.069Z,5360.00
2018-03-25T07:09:56.163Z,5240.00
2018-03-25T07:10:56.252Z,5248.00
2018-03-25T07:11:56.342Z,5208.00
2018-03-25T07:12:56.435Z,5272.00
2018-03-25T07:13:56.523Z,5232.00
2018-03-25T07:14:56.615Z,5256.00
2018-03-25T07:15:56.706Z,5220.00
2018-03-25T07:16:56.793Z,5244.00
2018-03-25T07:17:56.885Z,5336.00
2018-03-25T07:18:57.045Z,5244.00
2018-03-25T07:19:57.086Z,5196.00
2018-03-25T07:20:57.176Z,5116.00
2018-03-25T07:21:57.268Z,5024.00
2018-03-25T07:22:57.357Z,4948.00
2018-03-25T07:23:57.447Z,4868.00
2018-03-25T07:24:57.531Z,4804.00
2018-03-25T07:25:57.619Z,4796.00
2018-03-25T07:26:57.712Z,4828.00
2018-03-25T07:27:57.805Z,4868.00
2018-03-25T07:28:57.895Z,4892.00
2018-03-25T07:29:57.991Z,4884.00
2018-03-25T07:30:58.083Z,4872.00
2018-03-25T07:31:58.182Z,4860.00
2018-03-25T07:32:58.266Z,4864.00
2018-03-25T07:33:58.407Z,4824.00
2018-03-25T07:34:58.449Z,4752.00
2018-03-25T07:35:58.543Z,4776.00
2018-03-25T07:36:58.637Z,4788.00
2018-03-25T07:37:58.721Z,4832.00
2018-03-25T07:38:58.810Z,4876.00
2018-03-25T07:39:58.900Z,4896.00
2018-03-25T07:40:58.986Z,4900.00
2018-03-25T07:41:59.991Z,4812.00
2018-03-25T07:42:59.206Z,4860.00
2018-03-25T07:43:59.332Z,4884.00
2018-03-25T07:44:59.405Z,4896.00
2018-03-25T07:45:59.484Z,4908.00
2018-03-25T07:46:59.577Z,4908.00
2018-03-25T07:47:59.669Z,4844.00
2018-03-25T07:48:59.759Z,4888.00
2018-03-25T07:49:59.906Z,4904.00
2018-03-25T07:50:59.942Z,4896.00
2018-03-25T07:52:00.025Z,4904.00
2018-03-25T07:53:00.107Z,4880.00
2018-03-25T07:54:00.199Z,4872.00
2018-03-25T07:55:00.294Z,4840.00
2018-03-25T07:56:00.387Z,4844.00
2018-03-25T07:57:00.472Z,4852.00
2018-03-25T07:58:00.566Z,4836.00
2018-03-25T07:59:00.656Z,4824.00
2018-03-25T08:00:00.754Z,4828.00
2018-03-25T08:01:00.841Z,4828.00
2018-03-25T08:02:00.935Z,4804.00
2018-03-25T08:03:01.057Z,4744.00
2018-03-25T08:04:01.147Z,4760.00
2018-03-25T08:05:01.242Z,4736.00
2018-03-25T08:06:01.336Z,4716.00
2018-03-25T08:07:01.495Z,4700.00
2018-03-25T08:08:01.512Z,4708.00
2018-03-25T08:09:01.604Z,4704.00
2018-03-25T08:10:01.689Z,4676.00
2018-03-25T08:11:01.772Z,4640.00
2018-03-25T08:12:01.866Z,4628.00
2018-03-25T08:13:01.940Z,4628.00
2018-03-25T08:14:02.058Z,4652.00
2018-03-25T08:15:02.152Z,4664.00
2018-03-25T08:16:02.270Z,4624.00
2018-03-25T08:17:02.351Z,4620.00
2018-03-25T08:18:02.438Z,4600.00
2018-03-25T08:19:02.532Z,4596.00
2018-03-25T08:20:02.623Z,4548.00
2018-03-25T08:21:02.717Z,4552.00
2018-03-25T08:22:02.811Z,4548.00
2018-03-25T08:23:02.902Z,4580.00
2018-03-25T08:24:02.994Z,4548.00
2018-03-25T08:25:03.086Z,4580.00
2018-03-25T08:26:03.176Z,4612.00
2018-03-25T08:27:03.269Z,4644.00
2018-03-25T08:28:03.358Z,4592.00
2018-03-25T08:29:03.448Z,4724.00
2018-03-25T08:30:03.538Z,4748.00
2018-03-25T08:31:03.629Z,4784.00
2018-03-25T08:32:03.730Z,4812.00
2018-03-25T08:33:03.808Z,4836.00
2018-03-25T08:34:03.900Z,4860.00
2018-03-25T08:35:03.992Z,4880.00
2018-03-25T08:36:04.085Z,4904.00
2018-03-25T08:37:04.180Z,4924.00
2018-03-25T08:38:04.270Z,4960.00
2018-03-25T08:39:04.358Z,5000.00
2018-03-25T08:40:04.453Z,4956.00
2018-03-25T08:41:04.549Z,4984.00
2018-03-25T08:42:04.637Z,4992.00
2018-03-25T08:43:04.728Z,5036.00
2018-03-25T08:44:04.821Z,5044.00
2018-03-25T08:45:04.927Z,5044.00
2018-03-25T08:46:05.014Z,5084.00
2018-03-25T08:47:05.109Z,5112.00
2018-03-25T08:48:05.206Z,5116.00
2018-03-25T08:49:05.300Z,5188.00
2018-03-25T08:50:05.394Z,5208.00
2018-03-25T08:51:05.493Z,5228.00
2018-03-25T08:52:05.586Z,5232.00
2018-03-25T08:53:05.673Z,5232.00
2018-03-25T08:54:05.770Z,5232.00
2018-03-25T08:55:05.861Z,5232.00
2018-03-25T08:56:05.949Z,5244.00
2018-03-25T08:57:06.049Z,5268.00
2018-03-25T08:58:06.138Z,5228.00
2018-03-25T08:59:06.234Z,5320.00
2018-03-25T09:00:06.322Z,5332.00
2018-03-25T09:01:06.418Z,5336.00
2018-03-25T09:02:06.507Z,5324.00
2018-03-25T09:03:06.601Z,5320.00
2018-03-25T09:04:06.695Z,5352.00
2018-03-25T09:05:06.787Z,5356.00
2018-03-25T09:06:06.878Z,5376.00
2018-03-25T09:07:06.975Z,5368.00
2018-03-25T09:08:07.068Z,5360.00
2018-03-25T09:09:07.158Z,5356.00
2018-03-25T09:10:07.252Z,5344.00
2018-03-25T09:11:07.343Z,5360.00
2018-03-25T09:12:07.426Z,5372.00
2018-03-25T09:13:07.516Z,5368.00
2018-03-25T09:14:07.607Z,5352.00
2018-03-25T09:15:07.697Z,5368.00
2018-03-25T09:16:07.787Z,5392.00
2018-03-25T09:17:07.875Z,5420.00
2018-03-25T09:18:07.972Z,5376.00
2018-03-25T09:19:08.067Z,5456.00
2018-03-25T09:20:08.159Z,5456.00
2018-03-25T09:21:08.256Z,5492.00
2018-03-25T09:22:08.368Z,5496.00
2018-03-25T09:23:08.443Z,5492.00
2018-03-25T09:24:08.533Z,5524.00
2018-03-25T09:25:08.624Z,5556.00
2018-03-25T09:26:08.718Z,5552.00
2018-03-25T09:27:08.813Z,5556.00
2018-03-25T09:28:08.906Z,5568.00
2018-03-25T09:29:08.999Z,5580.00
2018-03-25T09:30:09.090Z,5576.00
2018-03-25T09:31:09.185Z,5592.00
2018-03-25T09:32:09.278Z,5564.00
2018-03-25T09:33:09.372Z,5564.00
2018-03-25T09:34:09.466Z,5572.00
2018-03-25T09:35:09.558Z,5568.00
2018-03-25T09:36:09.645Z,5588.00
2018-03-25T09:37:09.737Z,5628.00
2018-03-25T09:38:09.825Z,5628.00
2018-03-25T09:39:09.919Z,5636.00
2018-03-25T09:40:10.006Z,5652.00
2018-03-25T09:41:10.111Z,5660.00
2018-03-25T09:42:10.182Z,5664.00
2018-03-25T09:43:10.278Z,5668.00
2018-03-25T09:44:10.373Z,5676.00
2018-03-25T09:45:10.459Z,5636.00
2018-03-25T09:46:10.555Z,5632.00
2018-03-25T09:47:10.649Z,5632.00
2018-03-25T09:48:10.737Z,5604.00
2018-03-25T09:49:10.829Z,5656.00
2018-03-25T09:50:10.921Z,5628.00
2018-03-25T09:51:11.047Z,5568.00
2018-03-25T09:52:11.110Z,5528.00
2018-03-25T09:53:11.204Z,5540.00
2018-03-25T09:54:11.296Z,5564.00
2018-03-25T09:55:11.374Z,5536.00
2018-03-25T09:56:11.472Z,5552.00
2018-03-25T09:57:11.569Z,5516.00
2018-03-25T09:58:11.664Z,5484.00
2018-03-25T09:59:11.759Z,5464.00
2018-03-25T10:00:11.851Z,5380.00
2018-03-25T10:01:11.952Z,5508.00
2018-03-25T10:02:12.037Z,5528.00
2018-03-25T10:03:12.133Z,5464.00
2018-03-25T10:04:12.227Z,5512.00
2018-03-25T10:05:12.326Z,5516.00
2018-03-25T10:06:12.415Z,5540.00
2018-03-25T10:07:12.508Z,5540.00
2018-03-25T10:08:12.600Z,5516.00
2018-03-25T10:09:12.697Z,5504.00
2018-03-25T10:10:12.788Z,5500.00
2018-03-25T10:11:12.895Z,5504.00
2018-03-25T10:12:12.991Z,5516.00
2018-03-25T10:13:13.083Z,5552.00
2018-03-25T10:14:13.176Z,5588.00
2018-03-25T10:15:13.269Z,5576.00
2018-03-25T10:16:13.362Z,5556.00
2018-03-25T10:17:13.455Z,5544.00
2018-03-25T10:18:13.546Z,5544.00
2018-03-25T10:19:13.640Z,5556.00
2018-03-25T10:20:13.724Z,5592.00
2018-03-25T10:21:13.806Z,5584.00
2018-03-25T10:22:13.901Z,5584.00
2018-03-25T10:23:13.992Z,5584.00
2018-03-25T10:24:14.083Z,5600.00
2018-03-25T10:25:14.965Z,5628.00
2018-03-25T10:26:14.333Z,5652.00
2018-03-25T10:27:14.430Z,5704.00
2018-03-25T10:28:14.527Z,5728.00
2018-03-25T10:29:14.625Z,5756.00
2018-03-25T10:30:14.717Z,5772.00
2018-03-25T10:31:14.809Z,5772.00
2018-03-25T10:32:14.907Z,5792.00
2018-03-25T10:33:15.003Z,5820.00
2018-03-25T10:34:15.100Z,5828.00
2018-03-25T10:35:15.194Z,5808.00
2018-03-25T10:36:15.289Z,5768.00
2018-03-25T10:37:15.382Z,5764.00
2018-03-25T10:38:15.478Z,5788.00
2018-03-25T10:39:15.572Z,5748.00
2018-03-25T10:40:15.666Z,6124.00
2018-03-25T10:41:15.762Z,5780.00
2018-03-25T10:42:15.854Z,5780.00
2018-03-25T10:43:15.950Z,5776.00
2018-03-25T10:44:16.047Z,5780.00
2018-03-25T10:45:16.339Z,5748.00
2018-03-25T10:46:16.213Z,5776.00
2018-03-25T10:47:16.305Z,5724.00
2018-03-25T10:48:16.403Z,5752.00
2018-03-25T10:49:16.497Z,5768.00
2018-03-25T10:50:16.593Z,5780.00
2018-03-25T10:51:16.687Z,5808.00
2018-03-25T10:52:16.782Z,5840.00
2018-03-25T10:53:16.874Z,5856.00
2018-03-25T10:54:16.971Z,5828.00
2018-03-25T10:55:17.070Z,5848.00
2018-03-25T10:56:17.166Z,5836.00
2018-03-25T10:57:17.257Z,5824.00
2018-03-25T10:58:17.353Z,5828.00
2018-03-25T10:59:17.449Z,5856.00
2018-03-25T11:00:17.548Z,5888.00
2018-03-25T11:01:17.643Z,5900.00
2018-03-25T11:02:17.739Z,5884.00
2018-03-25T11:03:17.837Z,5904.00
2018-03-25T11:04:17.930Z,5904.00
2018-03-25T11:05:18.025Z,5928.00
2018-03-25T11:06:18.124Z,5920.00
2018-03-25T11:07:18.223Z,5976.00
2018-03-25T11:08:18.321Z,6000.00
2018-03-25T11:09:18.412Z,6008.00
2018-03-25T11:10:18.510Z,5944.00
2018-03-25T11:11:18.602Z,6024.00
2018-03-25T11:12:18.699Z,6024.00
2018-03-25T11:13:18.795Z,6012.00
2018-03-25T11:14:18.898Z,6020.00
2018-03-25T11:15:18.998Z,6004.00
2018-03-25T11:16:19.098Z,6024.00
2018-03-25T11:17:19.191Z,6028.00
2018-03-25T11:18:19.274Z,6032.00
2018-03-25T11:19:19.371Z,6028.00
2018-03-25T11:20:19.466Z,6060.00
2018-03-25T11:21:19.562Z,6088.00
2018-03-25T11:22:19.673Z,6460.00
2018-03-25T11:23:19.752Z,6092.00
2018-03-25T11:24:19.848Z,6084.00
2018-03-25T11:25:19.947Z,6108.00
2018-03-25T11:26:20.050Z,6144.00
2018-03-25T11:27:20.137Z,6176.00
2018-03-25T11:28:20.232Z,6188.00
2018-03-25T11:29:20.343Z,6044.00
2018-03-25T11:30:20.432Z,6184.00
2018-03-25T11:31:20.527Z,6172.00
2018-03-25T11:32:20.623Z,6264.00
2018-03-25T11:33:20.720Z,6236.00
2018-03-25T11:34:20.835Z,6260.00
2018-03-25T11:35:20.922Z,6336.00
2018-03-25T11:36:21.065Z,6360.00
2018-03-25T11:37:21.167Z,6332.00
2018-03-25T11:38:21.307Z,6388.00
2018-03-25T11:39:21.263Z,6348.00
2018-03-25T11:40:21.385Z,6352.00
2018-03-25T11:41:21.454Z,6276.00
2018-03-25T11:42:21.536Z,6352.00
2018-03-25T11:43:21.622Z,6396.00
2018-03-25T11:44:21.748Z,6404.00
2018-03-25T11:45:21.855Z,6392.00
2018-03-25T11:46:21.910Z,6452.00
2018-03-25T11:47:21.978Z,6488.00
2018-03-25T11:48:22.076Z,6348.00
2018-03-25T11:49:22.220Z,6260.00
2018-03-25T11:50:22.281Z,6352.00
2018-03-25T11:51:22.369Z,6488.00
2018-03-25T11:52:22.455Z,6460.00
2018-03-25T11:53:22.588Z,6424.00
2018-03-25T11:54:22.640Z,6284.00
2018-03-25T11:55:22.724Z,6412.00
2018-03-25T11:56:22.832Z,6400.00
2018-03-25T11:57:22.902Z,6508.00
2018-03-25T11:58:23.014Z,6656.00
2018-03-25T11:59:23.115Z,6628.00
2018-03-25T12:00:23.206Z,6544.00
2018-03-25T12:01:23.286Z,6484.00
2018-03-25T12:02:23.399Z,6472.00
2018-03-25T12:03:23.483Z,6492.00
2018-03-25T12:04:23.585Z,6392.00
2018-03-25T12:05:23.682Z,6368.00
2018-03-25T12:06:23.782Z,6440.00
2018-03-25T12:07:23.867Z,6440.00
2018-03-25T12:08:23.960Z,6432.00
2018-03-25T12:09:24.043Z,6268.00
2018-03-25T12:10:24.198Z,6296.00
2018-03-25T12:11:24.294Z,6264.00
2018-03-25T12:12:24.389Z,6504.00
2018-03-25T12:13:24.497Z,6672.00
2018-03-25T12:14:24.600Z,6664.00
2018-03-25T12:15:24.678Z,7448.00
2018-03-25T12:16:24.800Z,6580.00
2018-03-25T12:17:24.875Z,6636.00
2018-03-25T12:18:24.977Z,6576.00
2018-03-25T12:19:25.093Z,6516.00
2018-03-25T12:20:25.176Z,6464.00
2018-03-25T12:21:25.252Z,6396.00
2018-03-25T12:22:25.353Z,6420.00
2018-03-25T12:23:25.450Z,6432.00
2018-03-25T12:24:25.540Z,6456.00
2018-03-25T12:25:25.620Z,6480.00
2018-03-25T12:26:25.731Z,6472.00
2018-03-25T12:27:25.837Z,6508.00
2018-03-25T12:28:25.931Z,6564.00
2018-03-25T12:29:26.029Z,6660.00
2018-03-25T12:30:26.112Z,6676.00
2018-03-25T12:31:26.217Z,6564.00
2018-03-25T12:32:26.320Z,6700.00
2018-03-25T12:33:26.414Z,6768.00
2018-03-25T12:34:26.510Z,6784.00
2018-03-25T12:35:26.607Z,6664.00